Terminal Aerodrome Forecast
Issued by NWS Albuquerque, NM

Home | Current Version | Previous Version | Text Only | Print | Product List | Glossary On
Versions: 1 2 3 4 5 6 7 8 9 10 11 12
000
FTUS45 KABQ 261143 RRA
TAFABQ
TAF
KABQ 261143Z 2612/2712 24008KT P6SM SCT070 BKN090
     FM261800 27010KT P6SM BKN060 BKN090
     FM262100 29012G20KT P6SM VCSH OVC050
      TEMPO 2621/2624 VRB20G30KT
     FM270000 26010KT P6SM BKN060
     FM270500 20005KT P6SM SCT060=

USA.gov is the U.S. government's official web portal to all federal, state and local government web resources and services.